createdAt,value
2019-01-19T00:02:52.542Z,80.26
2019-01-19T00:06:24.507Z,79.36
2019-01-19T00:09:22.510Z,79.71
2019-01-19T00:13:10.545Z,80.47
2019-01-19T00:16:10.459Z,79.95
2019-01-19T00:20:00.519Z,78.94
2019-01-19T00:23:11.808Z,79.58
2019-01-19T00:26:58.635Z,79.92
2019-01-19T00:30:19.296Z,79.48
2019-01-19T00:34:08.457Z,79.25
2019-01-19T00:37:06.110Z,79.90
2019-01-19T00:40:43.270Z,79.48
2019-01-19T00:43:35.061Z,78.62
2019-01-19T00:46:46.888Z,78.23
2019-01-19T00:49:55.332Z,79.04
2019-01-19T00:53:10.876Z,78.56
2019-01-19T00:56:22.102Z,79.78
2019-01-19T00:59:29.785Z,79.41
2019-01-19T01:02:36.403Z,79.31
2019-01-19T01:05:35.076Z,79.88
2019-01-19T01:08:45.918Z,80.40
2019-01-19T01:12:07.792Z,79.50
2019-01-19T01:15:47.227Z,79.52
2019-01-19T01:18:37.634Z,78.04
2019-01-19T01:22:12.895Z,77.85
2019-01-19T01:25:43.280Z,77.65
2019-01-19T01:29:26.917Z,78.67
2019-01-19T01:32:51.216Z,78.24
2019-01-19T01:36:30.167Z,78.93
2019-01-19T01:39:35.063Z,79.45
2019-01-19T01:42:56.070Z,78.78
2019-01-19T01:46:19.152Z,78.12
2019-01-19T01:49:30.574Z,78.42
2019-01-19T01:52:45.927Z,78.36
2019-01-19T01:55:46.047Z,78.05
2019-01-19T01:58:55.262Z,76.96
2019-01-19T02:02:36.934Z,78.17
2019-01-19T02:05:51.486Z,76.89
2019-01-19T02:09:21.844Z,79.33
2019-01-19T02:12:50.004Z,78.07
2019-01-19T02:16:07.892Z,78.64
2019-01-19T02:19:29.670Z,76.99
2019-01-19T02:23:08.476Z,79.10
2019-01-19T02:26:32.658Z,76.17
2019-01-19T02:30:07.029Z,76.66
2019-01-19T02:33:51.934Z,76.04
2019-01-19T02:37:08.352Z,76.64
2019-01-19T02:41:00.873Z,76.44
2019-01-19T02:44:25.223Z,76.72
2019-01-19T02:47:30.810Z,76.06
2019-01-19T02:50:45.398Z,77.24
2019-01-19T02:54:01.197Z,76.07
2019-01-19T02:57:37.962Z,75.82
2019-01-19T03:00:57.712Z,76.76
2019-01-19T03:04:44.006Z,75.51
2019-01-19T03:08:29.377Z,77.66
2019-01-19T03:12:10.566Z,76.54
2019-01-19T03:15:16.954Z,75.61
2019-01-19T03:18:23.479Z,75.28
2019-01-19T03:21:51.709Z,74.60
2019-01-19T03:25:26.306Z,76.57
2019-01-19T03:28:38.951Z,77.68
2019-01-19T03:32:08.936Z,78.01
2019-01-19T03:35:19.478Z,76.65
2019-01-19T03:38:35.421Z,77.12
2019-01-19T03:42:01.488Z,77.50
2019-01-19T03:45:25.338Z,77.97
2019-01-19T03:48:39.348Z,77.77
2019-01-19T03:52:07.012Z,78.37
2019-01-19T03:55:13.668Z,78.84
2019-01-19T03:58:18.695Z,79.71
2019-01-19T04:01:20.377Z,77.85
2019-01-19T04:04:27.118Z,78.64
2019-01-19T04:07:44.847Z,78.45
2019-01-19T04:10:50.403Z,79.22
2019-01-19T04:14:41.512Z,79.32
2019-01-19T04:18:10.534Z,79.67
2019-01-19T04:21:21.551Z,81.04
2019-01-19T04:24:03.081Z,79.84
2019-01-19T04:26:41.666Z,79.10
2019-01-19T04:29:13.133Z,80.83
2019-01-19T04:31:44.551Z,79.93
2019-01-19T04:34:16.271Z,79.17
2019-01-19T04:36:52.479Z,78.79
2019-01-19T04:39:23.976Z,80.45
2019-01-19T04:41:55.361Z,79.63
2019-01-19T04:44:28.455Z,80.49
2019-01-19T04:46:59.881Z,80.19
2019-01-19T04:49:33.859Z,81.11
2019-01-19T04:52:05.263Z,79.92
2019-01-19T04:54:36.719Z,80.92
2019-01-19T04:57:08.293Z,80.06
2019-01-19T04:59:42.529Z,80.04
2019-01-19T05:02:16.385Z,81.18
2019-01-19T05:04:47.849Z,80.43
2019-01-19T05:07:23.973Z,80.53
2019-01-19T05:09:53.957Z,80.09
2019-01-19T05:12:25.376Z,80.65
2019-01-19T05:14:58.315Z,82.00
2019-01-19T05:17:29.744Z,81.64
2019-01-19T05:20:01.184Z,82.04
2019-01-19T05:22:35.424Z,82.97
2019-01-19T05:25:07.671Z,82.93
2019-01-19T05:27:39.219Z,82.91
2019-01-19T05:30:21.467Z,83.10
2019-01-19T05:32:53.069Z,82.88
2019-01-19T05:35:24.498Z,83.86
2019-01-19T05:37:55.911Z,83.33
2019-01-19T05:40:28.697Z,82.91
2019-01-19T05:43:00.113Z,83.24
2019-01-19T05:45:31.558Z,82.44
2019-01-19T05:48:02.996Z,83.69
2019-01-19T05:50:34.391Z,83.78
2019-01-19T05:53:05.925Z,82.75
2019-01-19T05:55:37.363Z,83.02
2019-01-19T05:58:09.128Z,82.67
2019-01-19T06:00:40.588Z,82.45
2019-01-19T06:03:12.007Z,81.89
2019-01-19T06:05:44.616Z,82.41
2019-01-19T06:08:16.032Z,83.01
2019-01-19T06:10:47.484Z,84.19
2019-01-19T06:13:20.658Z,83.94
2019-01-19T06:15:52.100Z,83.13
2019-01-19T06:18:23.451Z,83.57
2019-01-19T06:20:54.834Z,84.37
2019-01-19T06:23:26.248Z,83.77
2019-01-19T06:25:57.711Z,83.80
2019-01-19T06:28:29.130Z,82.49
2019-01-19T06:31:00.588Z,83.27
2019-01-19T06:33:34.769Z,82.72
2019-01-19T06:36:06.337Z,83.58
2019-01-19T06:38:37.775Z,83.86
2019-01-19T06:41:09.223Z,82.84
2019-01-19T06:43:40.663Z,83.27
2019-01-19T06:46:12.116Z,83.09
2019-01-19T06:48:43.539Z,83.41
2019-01-19T06:51:15.029Z,83.39
2019-01-19T06:53:47.143Z,84.44
2019-01-19T06:56:18.618Z,83.39
2019-01-19T06:58:50.424Z,83.47
2019-01-19T07:01:21.847Z,83.77
2019-01-19T07:03:53.266Z,84.40
2019-01-19T07:06:24.842Z,84.87
2019-01-19T07:08:56.262Z,85.07
2019-01-19T07:11:27.775Z,85.48
2019-01-19T07:13:59.207Z,83.87
2019-01-19T07:16:30.648Z,84.09
2019-01-19T07:19:02.139Z,83.95
2019-01-19T07:21:33.591Z,83.61
2019-01-19T07:24:06.122Z,84.30
2019-01-19T07:26:37.548Z,83.86
2019-01-19T07:29:08.994Z,85.97
2019-01-19T07:31:40.442Z,84.66
2019-01-19T07:34:11.925Z,84.33
2019-01-19T07:36:43.278Z,84.74
2019-01-19T07:39:14.705Z,85.80
2019-01-19T07:41:46.198Z,85.80
2019-01-19T07:44:17.629Z,85.60
2019-01-19T07:46:55.941Z,84.63
2019-01-19T07:49:22.766Z,83.65
2019-01-19T07:51:54.176Z,83.23
2019-01-19T07:54:25.678Z,83.09
2019-01-19T07:56:57.143Z,82.19
2019-01-19T07:59:28.620Z,81.95
2019-01-19T08:02:00.104Z,84.34
2019-01-19T08:04:31.532Z,84.14
2019-01-19T08:07:02.996Z,84.09
2019-01-19T08:09:34.442Z,83.74
2019-01-19T08:12:06.114Z,82.43
2019-01-19T08:14:37.714Z,83.21
2019-01-19T08:17:09.484Z,84.76
2019-01-19T08:19:41.050Z,83.54
2019-01-19T08:22:14.273Z,82.81
2019-01-19T08:24:45.706Z,83.74
2019-01-19T08:27:17.190Z,82.75
2019-01-19T08:29:48.655Z,83.03
2019-01-19T08:32:21.411Z,83.82
2019-01-19T08:34:52.881Z,83.11
2019-01-19T08:37:24.622Z,83.14
2019-01-19T08:39:56.216Z,81.61
2019-01-19T08:42:27.929Z,81.27
2019-01-19T08:44:59.642Z,79.57
2019-01-19T08:47:31.100Z,81.50
2019-01-19T08:50:03.778Z,80.60
2019-01-19T08:52:35.185Z,80.38
2019-01-19T08:55:07.572Z,79.51
2019-01-19T08:57:39.024Z,80.42
2019-01-19T09:00:14.876Z,78.57
2019-01-19T09:02:46.358Z,79.26
2019-01-19T09:05:19.803Z,79.12
2019-01-19T09:07:51.268Z,78.82
2019-01-19T09:10:22.899Z,76.95
2019-01-19T09:12:54.701Z,76.81
2019-01-19T09:15:26.249Z,75.51
2019-01-19T09:17:57.737Z,74.71
2019-01-19T09:20:31.348Z,76.08
2019-01-19T09:23:08.183Z,75.85
2019-01-19T09:25:39.672Z,75.52
2019-01-19T09:28:11.138Z,75.30
2019-01-19T09:30:42.638Z,77.44
2019-01-19T09:33:14.022Z,77.87
2019-01-19T09:35:45.489Z,78.98
2019-01-19T09:38:17.442Z,77.67
2019-01-19T09:40:48.869Z,75.71
2019-01-19T09:43:23.242Z,69.47
2019-01-19T09:45:54.701Z,65.20
2019-01-19T09:48:26.157Z,66.90
2019-01-19T09:50:57.628Z,66.41
2019-01-19T09:53:29.091Z,69.52
2019-01-19T09:56:01.478Z,68.07
2019-01-19T09:58:32.962Z,70.09
2019-01-19T10:01:04.392Z,70.53
2019-01-19T10:03:35.867Z,72.13
2019-01-19T10:06:07.333Z,74.07
2019-01-19T10:08:39.122Z,72.37
2019-01-19T10:11:11.049Z,71.93
2019-01-19T10:13:42.608Z,72.67
2019-01-19T10:16:14.211Z,70.65
2019-01-19T10:18:45.831Z,69.50
2019-01-19T10:21:17.337Z,69.12
2019-01-19T10:23:48.787Z,66.41
2019-01-19T10:26:20.196Z,67.17
2019-01-19T10:28:52.196Z,66.59
2019-01-19T10:31:23.662Z,64.80
2019-01-19T10:33:55.129Z,66.30
2019-01-19T10:36:26.576Z,67.30
2019-01-19T10:38:58.073Z,69.36
2019-01-19T10:41:29.502Z,67.58
2019-01-19T10:44:00.995Z,67.91
2019-01-19T10:46:32.410Z,68.60
2019-01-19T10:49:06.923Z,67.87
2019-01-19T10:51:38.352Z,67.83
2019-01-19T10:54:09.860Z,67.80
2019-01-19T10:56:41.270Z,67.87
2019-01-19T10:59:13.253Z,67.52
2019-01-19T11:01:44.706Z,68.09
2019-01-19T11:04:17.890Z,67.46
2019-01-19T11:06:50.958Z,66.63
2019-01-19T11:09:22.510Z,65.92
2019-01-19T11:11:53.948Z,66.24
2019-01-19T11:14:25.415Z,65.11
2019-01-19T11:16:58.202Z,64.23
2019-01-19T11:19:29.660Z,63.92
2019-01-19T11:22:01.121Z,65.92
2019-01-19T11:24:32.584Z,66.26
2019-01-19T11:27:04.095Z,65.90
2019-01-19T11:29:35.611Z,64.01
2019-01-19T11:32:08.649Z,63.90
2019-01-19T11:34:40.104Z,64.29
2019-01-19T11:37:11.662Z,62.82
2019-01-19T11:39:43.082Z,64.31
2019-01-19T11:42:14.642Z,63.92
2019-01-19T11:44:46.098Z,64.20
2019-01-19T11:47:17.628Z,62.80
2019-01-19T11:49:49.169Z,63.34
2019-01-19T11:52:20.613Z,63.57
2019-01-19T11:54:52.208Z,62.15
2019-01-19T11:57:23.725Z,61.82
2019-01-19T11:59:55.316Z,59.76
2019-01-19T12:02:26.818Z,59.99
2019-01-19T12:04:58.283Z,60.18
2019-01-19T12:07:31.006Z,60.53
2019-01-19T12:10:02.488Z,61.13
2019-01-19T12:12:33.993Z,60.23
2019-01-19T12:15:06.283Z,62.01
2019-01-19T12:17:37.755Z,60.82
2019-01-19T12:20:14.763Z,61.37
2019-01-19T12:22:46.192Z,61.27
2019-01-19T12:25:19.693Z,61.46
2019-01-19T12:27:51.111Z,60.40
2019-01-19T12:30:25.786Z,59.72
2019-01-19T12:32:57.263Z,60.10
2019-01-19T12:35:28.855Z,60.16
2019-01-19T12:38:00.548Z,60.05
2019-01-19T12:40:32.267Z,59.31
2019-01-19T12:43:14.121Z,59.53
2019-01-19T12:46:10.512Z,60.12
2019-01-19T12:48:41.960Z,58.53
2019-01-19T12:51:14.829Z,57.71
2019-01-19T12:53:47.431Z,57.84
2019-01-19T12:56:18.884Z,59.00
2019-01-19T12:58:50.329Z,58.87
2019-01-19T13:01:21.762Z,59.65
2019-01-19T13:03:53.280Z,58.48
2019-01-19T13:07:00.278Z,59.87
2019-01-19T13:09:39.390Z,58.46
2019-01-19T13:12:51.388Z,59.17
2019-01-19T13:16:16.781Z,57.44
2019-01-19T13:18:59.069Z,58.36
2019-01-19T13:22:31.360Z,59.74
2019-01-19T13:25:47.170Z,58.44
2019-01-19T13:29:14.431Z,57.54
2019-01-19T13:32:24.488Z,57.03
2019-01-19T13:36:20.163Z,58.78
2019-01-19T13:39:45.623Z,59.58
2019-01-19T13:43:15.881Z,58.26
2019-01-19T13:46:00.170Z,56.90
2019-01-19T13:49:43.255Z,55.99
2019-01-19T13:52:55.672Z,56.82
2019-01-19T13:56:29.555Z,56.48
2019-01-19T13:59:49.184Z,56.92
2019-01-19T14:02:52.244Z,56.06
2019-01-19T14:06:02.727Z,55.50
2019-01-19T14:09:36.087Z,57.52
2019-01-19T14:13:25.103Z,56.44
2019-01-19T14:16:45.607Z,56.76
2019-01-19T14:19:55.823Z,57.94
2019-01-19T14:23:31.917Z,58.28
2019-01-19T14:26:53.906Z,57.11
2019-01-19T14:30:15.724Z,57.15
2019-01-19T14:33:20.311Z,56.13
2019-01-19T14:36:49.799Z,56.49
2019-01-19T14:40:33.202Z,59.82
2019-01-19T14:43:53.147Z,62.22
2019-01-19T14:47:02.013Z,63.67
2019-01-19T14:50:51.706Z,64.81
2019-01-19T14:54:00.288Z,66.62
2019-01-19T14:57:05.539Z,66.51
2019-01-19T15:00:39.254Z,66.59
2019-01-19T15:04:02.835Z,66.42
2019-01-19T15:07:22.904Z,66.73
2019-01-19T15:10:50.304Z,66.74
2019-01-19T15:14:00.299Z,67.28
2019-01-19T15:17:26.128Z,65.49
2019-01-19T15:20:47.593Z,65.95
2019-01-19T15:23:44.898Z,66.01
2019-01-19T15:27:23.779Z,65.70
2019-01-19T15:30:58.636Z,64.73
2019-01-19T15:34:30.500Z,65.88
2019-01-19T15:37:54.754Z,61.93
2019-01-19T15:41:15.162Z,61.74
2019-01-19T15:44:44.839Z,62.77
2019-01-19T15:47:40.261Z,61.99
2019-01-19T15:51:02.946Z,63.21
2019-01-19T15:53:43.023Z,63.58
2019-01-19T15:57:41.292Z,62.57
2019-01-19T16:01:07.461Z,64.50
2019-01-19T16:04:16.742Z,63.86
2019-01-19T16:07:49.179Z,64.91
2019-01-19T16:11:32.897Z,64.55
2019-01-19T16:15:23.142Z,64.48
2019-01-19T16:18:29.922Z,64.90
2019-01-19T16:22:06.382Z,65.26
2019-01-19T16:25:34.292Z,65.30
2019-01-19T16:29:00.715Z,64.37
2019-01-19T16:32:19.099Z,64.63
2019-01-19T16:35:49.844Z,65.55
2019-01-19T16:39:25.642Z,65.47
2019-01-19T16:42:33.175Z,65.10
2019-01-19T16:45:32.663Z,65.10
2019-01-19T16:48:19.045Z,66.00
2019-01-19T16:51:46.035Z,66.13
2019-01-19T16:54:40.515Z,66.06
2019-01-19T16:58:22.343Z,67.12
2019-01-19T17:01:48.689Z,66.30
2019-01-19T17:05:24.686Z,66.57
2019-01-19T17:08:32.884Z,66.76
2019-01-19T17:11:57.650Z,67.25
2019-01-19T17:15:36.423Z,66.50
2019-01-19T17:19:04.513Z,67.00
2019-01-19T17:22:38.572Z,66.91
2019-01-19T17:26:14.868Z,66.85
2019-01-19T17:29:19.139Z,67.53
2019-01-19T17:32:37.192Z,67.52
2019-01-19T17:35:56.346Z,67.08
2019-01-19T17:39:13.887Z,66.98
2019-01-19T17:43:06.347Z,67.30
2019-01-19T17:46:31.731Z,66.70
2019-01-19T17:49:51.350Z,68.67
2019-01-19T17:53:41.095Z,68.32
2019-01-19T17:57:04.118Z,68.34
2019-01-19T18:00:27.025Z,68.61
2019-01-19T18:03:33.379Z,69.07
2019-01-19T18:06:45.233Z,69.23
2019-01-19T18:10:15.004Z,69.10
2019-01-19T18:13:34.419Z,69.45
2019-01-19T18:17:25.772Z,70.01
2019-01-19T18:20:45.126Z,71.90
2019-01-19T18:24:40.589Z,71.47
2019-01-19T18:28:09.386Z,71.11
2019-01-19T18:31:31.764Z,72.14
2019-01-19T18:34:29.130Z,72.60
2019-01-19T18:37:30.527Z,71.81
2019-01-19T18:40:48.940Z,72.32
2019-01-19T18:43:52.112Z,72.06
2019-01-19T18:47:28.709Z,70.84
2019-01-19T18:51:26.913Z,71.06
2019-01-19T18:54:34.232Z,70.95
2019-01-19T18:58:25.215Z,70.73
2019-01-19T19:01:46.127Z,71.99
2019-01-19T19:05:22.209Z,71.69
2019-01-19T19:08:35.789Z,71.48
2019-01-19T19:11:46.034Z,71.49
2019-01-19T19:14:48.013Z,70.90
2019-01-19T19:18:22.775Z,71.23
2019-01-19T19:21:43.562Z,72.08
2019-01-19T19:25:32.802Z,72.00
2019-01-19T19:28:49.473Z,71.99
2019-01-19T19:32:20.022Z,72.68
2019-01-19T19:35:23.254Z,72.64
2019-01-19T19:38:45.456Z,72.80
2019-01-19T19:42:20.366Z,73.50
2019-01-19T19:45:36.193Z,72.53
2019-01-19T19:48:43.597Z,72.90
2019-01-19T19:52:03.820Z,72.87
2019-01-19T19:54:36.449Z,73.56
2019-01-19T19:57:07.983Z,74.08
2019-01-19T19:59:39.584Z,73.73
2019-01-19T20:02:11.304Z,74.29
2019-01-19T20:04:42.916Z,74.40
2019-01-19T20:07:14.935Z,73.82
2019-01-19T20:09:46.658Z,74.51
2019-01-19T20:12:18.195Z,74.56
2019-01-19T20:14:49.707Z,74.43
2019-01-19T20:17:21.372Z,74.34
2019-01-19T20:19:53.057Z,74.82
2019-01-19T20:22:24.563Z,74.41
2019-01-19T20:24:56.140Z,74.57
2019-01-19T20:27:27.584Z,75.86
2019-01-19T20:29:59.085Z,75.41
2019-01-19T20:32:30.645Z,75.14
2019-01-19T20:35:02.191Z,75.37
2019-01-19T20:37:33.758Z,75.63
2019-01-19T20:40:06.274Z,75.96
2019-01-19T20:42:37.742Z,75.95
2019-01-19T20:45:11.347Z,76.04
2019-01-19T20:47:42.877Z,75.94
2019-01-19T20:50:14.617Z,75.57
2019-01-19T20:52:46.169Z,75.39
2019-01-19T20:55:17.646Z,77.01
2019-01-19T20:57:49.025Z,77.50
2019-01-19T21:00:20.660Z,77.76
2019-01-19T21:02:53.446Z,77.05
2019-01-19T21:05:24.915Z,77.26
2019-01-19T21:07:56.505Z,77.18
2019-01-19T21:10:31.851Z,77.92
2019-01-19T21:13:01.272Z,78.27
2019-01-19T21:15:33.839Z,78.01
2019-01-19T21:18:05.372Z,77.47
2019-01-19T21:20:37.911Z,78.36
2019-01-19T21:23:09.373Z,77.79
2019-01-19T21:25:40.914Z,77.80
2019-01-19T21:28:12.342Z,78.57
2019-01-19T21:30:43.928Z,78.12
2019-01-19T21:33:15.371Z,78.89
2019-01-19T21:35:46.841Z,78.29
2019-01-19T21:38:20.720Z,77.87
2019-01-19T21:40:52.184Z,78.06
2019-01-19T21:43:23.647Z,78.48
2019-01-19T21:45:55.117Z,78.18
2019-01-19T21:48:26.575Z,77.97
2019-01-19T21:50:58.050Z,78.40
2019-01-19T21:53:31.012Z,78.47
2019-01-19T21:56:02.461Z,78.45
2019-01-19T21:58:33.927Z,78.68
2019-01-19T22:01:05.394Z,79.32
2019-01-19T22:03:42.913Z,80.50
2019-01-19T22:06:14.580Z,80.47
2019-01-19T22:08:46.022Z,79.78
2019-01-19T22:11:17.503Z,79.80
2019-01-19T22:13:50.554Z,80.40
2019-01-19T22:16:22.095Z,80.08
2019-01-19T22:18:53.571Z,80.92
2019-01-19T22:21:26.334Z,81.27
2019-01-19T22:23:57.752Z,79.95
2019-01-19T22:26:29.586Z,78.87
2019-01-19T22:29:01.025Z,78.71
2019-01-19T22:31:32.516Z,78.94
2019-01-19T22:34:03.934Z,79.19
2019-01-19T22:36:35.394Z,79.15
2019-01-19T22:39:08.951Z,79.07
2019-01-19T22:41:40.415Z,79.26
2019-01-19T22:44:11.848Z,79.24
2019-01-19T22:46:43.290Z,79.83
2019-01-19T22:49:14.761Z,79.59
2019-01-19T22:51:47.057Z,79.51
2019-01-19T22:54:18.530Z,79.42
2019-01-19T22:56:49.980Z,79.53
2019-01-19T22:59:21.399Z,79.39
2019-01-19T23:02:10.784Z,79.37
2019-01-19T23:04:42.298Z,79.92
2019-01-19T23:07:13.828Z,80.11
2019-01-19T23:09:45.277Z,80.06
2019-01-19T23:12:16.774Z,80.11
2019-01-19T23:14:48.574Z,79.06
2019-01-19T23:17:20.115Z,79.06
2019-01-19T23:19:51.566Z,79.32
2019-01-19T23:22:24.300Z,79.85
2019-01-19T23:24:56.021Z,79.68
2019-01-19T23:27:27.473Z,79.60
2019-01-19T23:29:58.907Z,79.31
2019-01-19T23:32:30.395Z,78.64
2019-01-19T23:35:01.838Z,78.79
2019-01-19T23:37:33.284Z,80.08
2019-01-19T23:40:05.325Z,79.62
2019-01-19T23:42:36.858Z,79.43
2019-01-19T23:45:08.406Z,79.11
2019-01-19T23:47:39.962Z,78.47
2019-01-19T23:50:12.589Z,78.64
2019-01-19T23:52:45.360Z,78.32
2019-01-19T23:55:19.058Z,78.44
2019-01-19T23:57:51.031Z,78.59
